sensor_id;sensor_type;location;lat;lon;timestamp;pressure;altitude;pressure_sealevel;temperature;humidity
62708;BME280;48769;51.624;5.886;2023-08-06T00:01:23;100250.91;;;15.78;100.00
62708;BME280;48769;51.624;5.886;2023-08-06T00:03:49;100255.97;;;15.81;100.00
62708;BME280;48769;51.624;5.886;2023-08-06T00:06:14;100255.41;;;15.77;100.00
62708;BME280;48769;51.624;5.886;2023-08-06T00:08:39;100254.06;;;15.72;100.00
62708;BME280;48769;51.624;5.886;2023-08-06T00:11:05;100254.56;;;15.77;100.00
62708;BME280;48769;51.624;5.886;2023-08-06T00:13:30;100253.72;;;15.76;100.00
62708;BME280;48769;51.624;5.886;2023-08-06T00:15:55;100249.81;;;15.80;100.00
62708;BME280;48769;51.624;5.886;2023-08-06T00:18:21;100246.69;;;15.75;100.00
62708;BME280;48769;51.624;5.886;2023-08-06T00:20:46;100246.31;;;15.80;100.00
62708;BME280;48769;51.624;5.886;2023-08-06T00:23:11;100239.53;;;15.76;100.00
62708;BME280;48769;51.624;5.886;2023-08-06T00:25:36;100237.34;;;15.81;100.00
62708;BME280;48769;51.624;5.886;2023-08-06T00:28:02;100235.66;;;15.80;100.00
62708;BME280;48769;51.624;5.886;2023-08-06T00:30:27;100235.56;;;15.70;100.00
62708;BME280;48769;51.624;5.886;2023-08-06T00:32:53;100231.34;;;15.68;100.00
62708;BME280;48769;51.624;5.886;2023-08-06T00:35:18;100229.16;;;15.61;100.00
62708;BME280;48769;51.624;5.886;2023-08-06T00:37:43;100229.88;;;15.63;100.00
62708;BME280;48769;51.624;5.886;2023-08-06T00:40:09;100232.31;;;15.67;100.00
62708;BME280;48769;51.624;5.886;2023-08-06T00:42:34;100234.09;;;15.66;100.00
62708;BME280;48769;51.624;5.886;2023-08-06T00:45:00;100226.34;;;15.74;100.00
62708;BME280;48769;51.624;5.886;2023-08-06T00:47:26;100228.50;;;15.80;100.00
62708;BME280;48769;51.624;5.886;2023-08-06T00:49:51;100233.50;;;15.74;100.00
62708;BME280;48769;51.624;5.886;2023-08-06T00:52:17;100225.75;;;15.71;100.00
62708;BME280;48769;51.624;5.886;2023-08-06T00:54:43;100237.25;;;15.71;100.00
62708;BME280;48769;51.624;5.886;2023-08-06T00:57:09;100229.53;;;15.68;100.00
62708;BME280;48769;51.624;5.886;2023-08-06T00:59:34;100229.66;;;15.67;100.00
62708;BME280;48769;51.624;5.886;2023-08-06T01:02:00;100225.88;;;15.69;100.00
62708;BME280;48769;51.624;5.886;2023-08-06T01:04:25;100235.31;;;15.73;100.00
62708;BME280;48769;51.624;5.886;2023-08-06T01:07:19;100226.69;;;15.81;100.00
62708;BME280;48769;51.624;5.886;2023-08-06T01:15:54;100225.00;;;15.80;100.00
62708;BME280;48769;51.624;5.886;2023-08-06T01:18:22;100225.59;;;15.83;100.00
62708;BME280;48769;51.624;5.886;2023-08-06T01:20:48;100222.53;;;15.88;100.00
62708;BME280;48769;51.624;5.886;2023-08-06T01:23:15;100219.44;;;15.83;100.00
62708;BME280;48769;51.624;5.886;2023-08-06T01:25:48;100208.53;;;15.86;100.00
62708;BME280;48769;51.624;5.886;2023-08-06T01:31:05;100215.53;;;15.87;100.00
62708;BME280;48769;51.624;5.886;2023-08-06T01:33:33;100214.47;;;15.78;100.00
62708;BME280;48769;51.624;5.886;2023-08-06T01:36:00;100207.31;;;15.79;100.00
62708;BME280;48769;51.624;5.886;2023-08-06T01:38:26;100222.09;;;15.83;100.00
62708;BME280;48769;51.624;5.886;2023-08-06T01:40:53;100220.97;;;15.85;100.00
62708;BME280;48769;51.624;5.886;2023-08-06T01:43:25;100222.44;;;15.78;100.00
62708;BME280;48769;51.624;5.886;2023-08-06T01:45:50;100223.19;;;15.80;100.00
62708;BME280;48769;51.624;5.886;2023-08-06T01:48:15;100216.50;;;15.86;100.00
62708;BME280;48769;51.624;5.886;2023-08-06T01:50:40;100223.50;;;15.87;100.00
62708;BME280;48769;51.624;5.886;2023-08-06T01:53:06;100215.28;;;15.90;100.00
62708;BME280;48769;51.624;5.886;2023-08-06T01:55:31;100207.03;;;15.93;100.00
62708;BME280;48769;51.624;5.886;2023-08-06T01:58:02;100208.97;;;15.91;100.00
62708;BME280;48769;51.624;5.886;2023-08-06T02:00:28;100207.13;;;15.92;100.00
62708;BME280;48769;51.624;5.886;2023-08-06T02:02:53;100200.72;;;15.94;100.00
62708;BME280;48769;51.624;5.886;2023-08-06T02:05:19;100210.28;;;15.97;100.00
62708;BME280;48769;51.624;5.886;2023-08-06T02:07:44;100218.25;;;15.97;100.00
62708;BME280;48769;51.624;5.886;2023-08-06T02:10:13;100206.63;;;15.98;100.00
62708;BME280;48769;51.624;5.886;2023-08-06T02:12:38;100214.75;;;15.96;100.00
62708;BME280;48769;51.624;5.886;2023-08-06T02:15:04;100206.63;;;15.98;100.00
62708;BME280;48769;51.624;5.886;2023-08-06T02:17:29;100207.59;;;15.97;100.00
62708;BME280;48769;51.624;5.886;2023-08-06T02:19:54;100219.94;;;15.98;100.00
62708;BME280;48769;51.624;5.886;2023-08-06T02:22:20;100211.84;;;15.99;100.00
62708;BME280;48769;51.624;5.886;2023-08-06T02:24:45;100213.63;;;15.99;100.00
62708;BME280;48769;51.624;5.886;2023-08-06T02:27:10;100210.97;;;15.99;100.00
62708;BME280;48769;51.624;5.886;2023-08-06T02:29:36;100206.63;;;15.98;100.00
62708;BME280;48769;51.624;5.886;2023-08-06T02:32:01;100205.06;;;15.95;100.00
62708;BME280;48769;51.624;5.886;2023-08-06T02:34:27;100203.53;;;15.93;100.00
62708;BME280;48769;51.624;5.886;2023-08-06T02:36:53;100191.72;;;15.95;100.00
62708;BME280;48769;51.624;5.886;2023-08-06T02:39:18;100198.78;;;15.96;100.00
62708;BME280;48769;51.624;5.886;2023-08-06T02:41:44;100195.97;;;15.98;100.00
62708;BME280;48769;51.624;5.886;2023-08-06T02:44:09;100195.13;;;15.97;100.00
62708;BME280;48769;51.624;5.886;2023-08-06T02:46:34;100195.13;;;15.97;100.00
62708;BME280;48769;51.624;5.886;2023-08-06T02:49:00;100194.16;;;15.98;100.00
62708;BME280;48769;51.624;5.886;2023-08-06T02:51:25;100198.63;;;15.98;100.00
62708;BME280;48769;51.624;5.886;2023-08-06T02:53:50;100191.47;;;15.98;100.00
62708;BME280;48769;51.624;5.886;2023-08-06T02:56:16;100193.31;;;15.98;100.00
62708;BME280;48769;51.624;5.886;2023-08-06T02:58:41;100195.13;;;15.97;100.00
62708;BME280;48769;51.624;5.886;2023-08-06T03:01:06;100187.13;;;15.97;100.00
62708;BME280;48769;51.624;5.886;2023-08-06T03:03:33;100188.69;;;16.00;100.00
62708;BME280;48769;51.624;5.886;2023-08-06T03:05:58;100187.72;;;16.01;100.00
62708;BME280;48769;51.624;5.886;2023-08-06T03:08:24;100189.53;;;16.00;100.00
62708;BME280;48769;51.624;5.886;2023-08-06T03:10:50;100179.88;;;15.99;100.00
62708;BME280;48769;51.624;5.886;2023-08-06T03:13:19;100179.16;;;15.97;100.00
62708;BME280;48769;51.624;5.886;2023-08-06T03:16:00;100176.63;;;15.96;100.00
62708;BME280;48769;51.624;5.886;2023-08-06T03:18:26;100178.31;;;15.97;100.00
62708;BME280;48769;51.624;5.886;2023-08-06T03:20:51;100176.34;;;15.99;100.00
62708;BME280;48769;51.624;5.886;2023-08-06T03:23:17;100174.53;;;15.99;100.00
62708;BME280;48769;51.624;5.886;2023-08-06T03:25:43;100178.88;;;16.00;100.00
62708;BME280;48769;51.624;5.886;2023-08-06T03:28:08;100179.00;;;15.99;100.00
62708;BME280;48769;51.624;5.886;2023-08-06T03:30:34;100168.47;;;15.97;100.00
62708;BME280;48769;51.624;5.886;2023-08-06T03:32:59;100169.31;;;15.98;100.00
62708;BME280;48769;51.624;5.886;2023-08-06T03:35:24;100172.97;;;15.97;100.00
62708;BME280;48769;51.624;5.886;2023-08-06T03:37:50;100177.47;;;15.96;100.00
62708;BME280;48769;51.624;5.886;2023-08-06T03:40:15;100175.75;;;15.95;100.00
62708;BME280;48769;51.624;5.886;2023-08-06T03:42:41;100182.78;;;15.96;100.00
62708;BME280;48769;51.624;5.886;2023-08-06T03:45:07;100177.47;;;15.96;100.00
62708;BME280;48769;51.624;5.886;2023-08-06T03:47:32;100179.88;;;15.99;100.00
62708;BME280;48769;51.624;5.886;2023-08-06T03:49:58;100183.50;;;15.98;100.00
62708;BME280;48769;51.624;5.886;2023-08-06T03:52:23;100170.44;;;15.95;100.00
62708;BME280;48769;51.624;5.886;2023-08-06T03:54:48;100167.06;;;15.93;100.00
62708;BME280;48769;51.624;5.886;2023-08-06T03:57:14;100165.34;;;15.92;100.00
62708;BME280;48769;51.624;5.886;2023-08-06T03:59:39;100167.31;;;15.90;100.00
62708;BME280;48769;51.624;5.886;2023-08-06T04:02:04;100172.75;;;15.88;100.00
62708;BME280;48769;51.624;5.886;2023-08-06T04:04:30;100180.16;;;15.85;100.00
62708;BME280;48769;51.624;5.886;2023-08-06T04:06:55;100169.78;;;15.82;100.00
62708;BME280;48769;51.624;5.886;2023-08-06T04:09:20;100177.06;;;15.80;100.00
62708;BME280;48769;51.624;5.886;2023-08-06T04:11:46;100179.00;;;15.78;100.00
62708;BME280;48769;51.624;5.886;2023-08-06T04:14:11;100179.25;;;15.75;100.00
62708;BME280;48769;51.624;5.886;2023-08-06T04:16:36;100178.66;;;15.71;100.00
62708;BME280;48769;51.624;5.886;2023-08-06T04:19:01;100186.81;;;15.70;100.00
62708;BME280;48769;51.624;5.886;2023-08-06T04:21:27;100192.38;;;15.67;100.00
62708;BME280;48769;51.624;5.886;2023-08-06T04:23:52;100201.53;;;15.62;100.00
62708;BME280;48769;51.624;5.886;2023-08-06T04:26:18;100194.53;;;15.61;100.00
62708;BME280;48769;51.624;5.886;2023-08-06T04:28:43;100192.84;;;15.60;100.00
62708;BME280;48769;51.624;5.886;2023-08-06T04:31:08;100198.19;;;15.60;100.00
62708;BME280;48769;51.624;5.886;2023-08-06T04:33:34;100198.88;;;15.62;100.00
62708;BME280;48769;51.624;5.886;2023-08-06T04:35:59;100201.28;;;15.65;100.00
62708;BME280;48769;51.624;5.886;2023-08-06T04:38:25;100202.78;;;15.70;100.00
62708;BME280;48769;51.624;5.886;2023-08-06T04:40:50;100204.47;;;15.71;100.00
62708;BME280;48769;51.624;5.886;2023-08-06T04:43:16;100200.81;;;15.72;100.00
62708;BME280;48769;51.624;5.886;2023-08-06T04:45:49;100207.72;;;15.74;100.00
62708;BME280;48769;51.624;5.886;2023-08-06T04:48:14;100199.47;;;15.77;100.00
62708;BME280;48769;51.624;5.886;2023-08-06T04:50:47;100199.59;;;15.76;100.00
62708;BME280;48769;51.624;5.886;2023-08-06T04:53:13;100201.41;;;15.75;100.00
62708;BME280;48769;51.624;5.886;2023-08-06T04:55:39;100202.97;;;15.78;100.00
62708;BME280;48769;51.624;5.886;2023-08-06T04:58:04;100209.72;;;15.82;100.00
62708;BME280;48769;51.624;5.886;2023-08-06T05:00:30;100207.78;;;15.84;100.00
62708;BME280;48769;51.624;5.886;2023-08-06T05:02:55;100206.94;;;15.83;100.00
62708;BME280;48769;51.624;5.886;2023-08-06T05:05:20;100210.44;;;15.84;100.00
62708;BME280;48769;51.624;5.886;2023-08-06T05:07:48;100210.19;;;15.87;100.00
62708;BME280;48769;51.624;5.886;2023-08-06T05:10:14;100212.59;;;15.90;100.00
62708;BME280;48769;51.624;5.886;2023-08-06T05:12:40;100209.19;;;15.99;100.00
62708;BME280;48769;51.624;5.886;2023-08-06T05:15:05;100207.94;;;16.03;100.00
62708;BME280;48769;51.624;5.886;2023-08-06T05:17:31;100207.53;;;16.08;100.00
62708;BME280;48769;51.624;5.886;2023-08-06T05:19:56;100212.09;;;16.17;100.00
62708;BME280;48769;51.624;5.886;2023-08-06T05:22:21;100221.38;;;16.23;100.00
62708;BME280;48769;51.624;5.886;2023-08-06T05:24:47;100221.97;;;16.26;100.00
62708;BME280;48769;51.624;5.886;2023-08-06T05:27:12;100230.13;;;16.34;100.00
62708;BME280;48769;51.624;5.886;2023-08-06T05:29:37;100229.13;;;16.26;100.00
62708;BME280;48769;51.624;5.886;2023-08-06T05:32:03;100230.69;;;16.28;100.00
62708;BME280;48769;51.624;5.886;2023-08-06T05:34:28;100227.63;;;16.33;100.00
62708;BME280;48769;51.624;5.886;2023-08-06T05:36:54;100240.22;;;16.31;100.00
62708;BME280;48769;51.624;5.886;2023-08-06T05:39:19;100240.16;;;16.42;100.00
62708;BME280;48769;51.624;5.886;2023-08-06T05:41:44;100241.53;;;16.57;100.00
62708;BME280;48769;51.624;5.886;2023-08-06T05:44:09;100243.78;;;16.62;100.00
62708;BME280;48769;51.624;5.886;2023-08-06T05:46:35;100242.78;;;16.63;100.00
62708;BME280;48769;51.624;5.886;2023-08-06T05:49:00;100249.69;;;16.66;100.00
62708;BME280;48769;51.624;5.886;2023-08-06T05:51:26;100249.84;;;16.64;100.00
62708;BME280;48769;51.624;5.886;2023-08-06T05:53:52;100246.75;;;16.69;100.00
62708;BME280;48769;51.624;5.886;2023-08-06T05:56:17;100254.75;;;16.69;100.00
62708;BME280;48769;51.624;5.886;2023-08-06T05:58:42;100262.34;;;16.73;100.00
62708;BME280;48769;51.624;5.886;2023-08-06T06:01:08;100257.34;;;16.80;100.00
62708;BME280;48769;51.624;5.886;2023-08-06T06:03:33;100268.03;;;16.80;100.00
62708;BME280;48769;51.624;5.886;2023-08-06T06:06:01;100266.34;;;16.79;100.00
62708;BME280;48769;51.624;5.886;2023-08-06T06:08:26;100267.50;;;16.86;100.00
62708;BME280;48769;51.624;5.886;2023-08-06T06:10:51;100274.28;;;16.90;100.00
62708;BME280;48769;51.624;5.886;2023-08-06T06:13:17;100279.34;;;16.93;100.00
62708;BME280;48769;51.624;5.886;2023-08-06T06:15:42;100278.78;;;16.99;100.00
62708;BME280;48769;51.624;5.886;2023-08-06T06:18:07;100279.09;;;17.06;100.00
62708;BME280;48769;51.624;5.886;2023-08-06T06:20:33;100279.97;;;17.07;100.00
62708;BME280;48769;51.624;5.886;2023-08-06T06:22:59;100295.00;;;17.08;100.00
62708;BME280;48769;51.624;5.886;2023-08-06T06:25:24;100288.66;;;17.09;100.00
62708;BME280;48769;51.624;5.886;2023-08-06T06:27:49;100298.81;;;17.15;100.00
62708;BME280;48769;51.624;5.886;2023-08-06T06:30:15;100300.81;;;17.22;100.00
62708;BME280;48769;51.624;5.886;2023-08-06T06:32:40;100301.38;;;17.26;100.00
62708;BME280;48769;51.624;5.886;2023-08-06T06:35:06;100298.03;;;17.34;100.00
62708;BME280;48769;51.624;5.886;2023-08-06T06:37:31;100298.78;;;17.45;100.00
62708;BME280;48769;51.624;5.886;2023-08-06T06:39:57;100300.88;;;17.51;100.00
62708;BME280;48769;51.624;5.886;2023-08-06T06:42:22;100302.72;;;17.61;100.00
62708;BME280;48769;51.624;5.886;2023-08-06T06:44:48;100306.56;;;17.68;100.00
62708;BME280;48769;51.624;5.886;2023-08-06T06:47:13;100316.44;;;17.77;100.00
62708;BME280;48769;51.624;5.886;2023-08-06T06:49:39;100308.16;;;17.90;100.00
62708;BME280;48769;51.624;5.886;2023-08-06T06:52:05;100310.44;;;18.04;100.00
62708;BME280;48769;51.624;5.886;2023-08-06T06:54:30;100311.66;;;18.19;100.00
62708;BME280;48769;51.624;5.886;2023-08-06T06:56:55;100310.81;;;18.38;100.00
62708;BME280;48769;51.624;5.886;2023-08-06T06:59:20;100311.06;;;18.55;100.00
62708;BME280;48769;51.624;5.886;2023-08-06T07:01:46;100317.81;;;18.59;100.00
62708;BME280;48769;51.624;5.886;2023-08-06T07:04:11;100311.34;;;18.61;100.00
62708;BME280;48769;51.624;5.886;2023-08-06T07:06:36;100318.69;;;18.59;100.00
62708;BME280;48769;51.624;5.886;2023-08-06T07:09:02;100319.53;;;18.60;100.00
62708;BME280;48769;51.624;5.886;2023-08-06T07:11:28;100328.22;;;18.62;100.00
62708;BME280;48769;51.624;5.886;2023-08-06T07:13:57;100325.00;;;18.58;100.00
62708;BME280;48769;51.624;5.886;2023-08-06T07:16:25;100325.28;;;18.55;100.00
62708;BME280;48769;51.624;5.886;2023-08-06T07:18:51;100321.78;;;18.45;100.00
62708;BME280;48769;51.624;5.886;2023-08-06T07:21:17;100329.97;;;18.43;100.00
62708;BME280;48769;51.624;5.886;2023-08-06T07:23:43;100327.69;;;18.39;100.00
62708;BME280;48769;51.624;5.886;2023-08-06T07:26:08;100331.53;;;18.36;100.00
62708;BME280;48769;51.624;5.886;2023-08-06T07:28:34;100327.72;;;18.29;100.00
62708;BME280;48769;51.624;5.886;2023-08-06T07:31:00;100335.31;;;18.24;100.00
62708;BME280;48769;51.624;5.886;2023-08-06T07:33:25;100337.28;;;18.22;100.00
62708;BME280;48769;51.624;5.886;2023-08-06T07:35:50;100335.16;;;18.06;100.00
62708;BME280;48769;51.624;5.886;2023-08-06T07:38:16;100346.84;;;17.95;100.00
62708;BME280;48769;51.624;5.886;2023-08-06T07:40:41;100358.63;;;17.83;100.00
62708;BME280;48769;51.624;5.886;2023-08-06T07:43:07;100353.50;;;17.70;100.00
62708;BME280;48769;51.624;5.886;2023-08-06T07:45:35;100364.16;;;17.61;100.00
62708;BME280;48769;51.624;5.886;2023-08-06T07:48:01;100354.28;;;17.51;100.00
62708;BME280;48769;51.624;5.886;2023-08-06T07:50:27;100359.22;;;17.46;100.00
62708;BME280;48769;51.624;5.886;2023-08-06T07:52:52;100358.75;;;17.41;100.00
62708;BME280;48769;51.624;5.886;2023-08-06T07:55:17;100364.34;;;17.38;100.00
62708;BME280;48769;51.624;5.886;2023-08-06T07:57:43;100352.00;;;17.37;100.00
62708;BME280;48769;51.624;5.886;2023-08-06T08:00:08;100358.44;;;17.35;100.00
62708;BME280;48769;51.624;5.886;2023-08-06T08:02:34;100357.03;;;17.31;100.00
62708;BME280;48769;51.624;5.886;2023-08-06T08:05:00;100354.09;;;17.34;100.00
62708;BME280;48769;51.624;5.886;2023-08-06T08:07:25;100363.09;;;17.33;100.00
62708;BME280;48769;51.624;5.886;2023-08-06T08:09:53;100364.63;;;17.35;100.00
62708;BME280;48769;51.624;5.886;2023-08-06T08:12:18;100353.69;;;17.38;100.00
62708;BME280;48769;51.624;5.886;2023-08-06T08:14:44;100364.09;;;17.41;100.00
62708;BME280;48769;51.624;5.886;2023-08-06T08:17:10;100356.81;;;17.43;100.00
62708;BME280;48769;51.624;5.886;2023-08-06T08:19:36;100367.22;;;17.46;100.00
62708;BME280;48769;51.624;5.886;2023-08-06T08:22:01;100362.28;;;17.51;100.00
62708;BME280;48769;51.624;5.886;2023-08-06T08:24:26;100372.03;;;17.52;100.00
62708;BME280;48769;51.624;5.886;2023-08-06T08:26:52;100371.03;;;17.53;100.00
62708;BME280;48769;51.624;5.886;2023-08-06T08:29:19;100368.63;;;17.50;100.00
62708;BME280;48769;51.624;5.886;2023-08-06T08:31:45;100377.19;;;17.44;100.00
62708;BME280;48769;51.624;5.886;2023-08-06T08:34:10;100382.09;;;17.39;100.00
62708;BME280;48769;51.624;5.886;2023-08-06T08:36:35;100381.78;;;17.33;100.00
62708;BME280;48769;51.624;5.886;2023-08-06T08:39:01;100388.75;;;17.24;100.00
62708;BME280;48769;51.624;5.886;2023-08-06T08:41:30;100390.06;;;17.09;100.00
62708;BME280;48769;51.624;5.886;2023-08-06T08:43:58;100383.84;;;16.98;100.00
62708;BME280;48769;51.624;5.886;2023-08-06T08:46:29;100391.41;;;16.93;100.00
62708;BME280;48769;51.624;5.886;2023-08-06T08:48:56;100400.50;;;16.91;100.00
62708;BME280;48769;51.624;5.886;2023-08-06T08:51:22;100395.56;;;16.86;100.00
62708;BME280;48769;51.624;5.886;2023-08-06T08:53:49;100396.06;;;16.80;100.00
62708;BME280;48769;51.624;5.886;2023-08-06T08:56:16;100390.47;;;16.83;100.00
62708;BME280;48769;51.624;5.886;2023-08-06T08:58:41;100397.78;;;16.81;100.00
62708;BME280;48769;51.624;5.886;2023-08-06T09:01:07;100394.66;;;16.76;100.00
62708;BME280;48769;51.624;5.886;2023-08-06T09:03:34;100411.38;;;16.67;100.00
62708;BME280;48769;51.624;5.886;2023-08-06T09:06:02;100413.03;;;16.58;100.00
62708;BME280;48769;51.624;5.886;2023-08-06T09:08:34;100428.72;;;16.40;100.00
62708;BME280;48769;51.624;5.886;2023-08-06T09:11:01;100434.78;;;16.31;100.00
62708;BME280;48769;51.624;5.886;2023-08-06T09:13:28;100434.00;;;16.19;100.00
62708;BME280;48769;51.624;5.886;2023-08-06T09:15:53;100428.22;;;16.03;100.00
62708;BME280;48769;51.624;5.886;2023-08-06T09:18:29;100432.72;;;15.91;100.00
62708;BME280;48769;51.624;5.886;2023-08-06T09:20:56;100432.75;;;15.80;100.00
62708;BME280;48769;51.624;5.886;2023-08-06T09:23:28;100436.34;;;15.79;100.00
62708;BME280;48769;51.624;5.886;2023-08-06T09:25:54;100446.66;;;15.72;100.00
62708;BME280;48769;51.624;5.886;2023-08-06T09:28:20;100443.72;;;15.64;100.00
62708;BME280;48769;51.624;5.886;2023-08-06T09:30:47;100449.06;;;15.64;100.00
62708;BME280;48769;51.624;5.886;2023-08-06T09:33:17;100443.72;;;15.64;100.00
62708;BME280;48769;51.624;5.886;2023-08-06T09:35:43;100447.25;;;15.64;100.00
62708;BME280;48769;51.624;5.886;2023-08-06T09:38:09;100442.88;;;15.63;100.00
62708;BME280;48769;51.624;5.886;2023-08-06T09:40:37;100442.31;;;15.71;100.00
62708;BME280;48769;51.624;5.886;2023-08-06T09:43:02;100449.44;;;15.71;100.00
62708;BME280;48769;51.624;5.886;2023-08-06T09:45:36;100458.00;;;15.63;100.00
62708;BME280;48769;51.624;5.886;2023-08-06T09:48:06;100458.00;;;15.63;100.00
62708;BME280;48769;51.624;5.886;2023-08-06T09:50:34;100449.69;;;15.68;100.00
62708;BME280;48769;51.624;5.886;2023-08-06T09:53:02;100455.09;;;15.66;100.00
62708;BME280;48769;51.624;5.886;2023-08-06T09:55:27;100460.34;;;15.68;100.00
62708;BME280;48769;51.624;5.886;2023-08-06T09:57:53;100467.13;;;15.72;100.00
62708;BME280;48769;51.624;5.886;2023-08-06T10:00:19;100470.50;;;15.74;100.00
62708;BME280;48769;51.624;5.886;2023-08-06T10:02:46;100470.28;;;15.77;100.00
62708;BME280;48769;51.624;5.886;2023-08-06T10:05:12;100479.31;;;15.85;100.00
62708;BME280;48769;51.624;5.886;2023-08-06T10:07:37;100477.41;;;15.87;100.00
62708;BME280;48769;51.624;5.886;2023-08-06T10:10:06;100476.78;;;15.95;100.00
62708;BME280;48769;51.624;5.886;2023-08-06T10:12:47;100477.75;;;15.94;100.00
62708;BME280;48769;51.624;5.886;2023-08-06T10:15:15;100476.66;;;15.97;100.00
62708;BME280;48769;51.624;5.886;2023-08-06T10:17:43;100475.59;;;15.99;100.00
62708;BME280;48769;51.624;5.886;2023-08-06T10:20:11;100476.78;;;16.06;100.00
62708;BME280;48769;51.624;5.886;2023-08-06T10:22:42;100484.16;;;16.14;100.00
62708;BME280;48769;51.624;5.886;2023-08-06T10:25:09;100483.06;;;16.17;100.00
62708;BME280;48769;51.624;5.886;2023-08-06T10:27:56;100481.00;;;16.20;100.00
62708;BME280;48769;51.624;5.886;2023-08-06T10:30:22;100483.66;;;16.20;100.00
62708;BME280;48769;51.624;5.886;2023-08-06T10:33:03;100496.59;;;16.25;100.00
62708;BME280;48769;51.624;5.886;2023-08-06T10:35:31;100494.91;;;16.24;100.00
62708;BME280;48769;51.624;5.886;2023-08-06T10:38:03;100498.31;;;16.26;100.00
62708;BME280;48769;51.624;5.886;2023-08-06T10:40:29;100499.03;;;16.28;100.00
62708;BME280;48769;51.624;5.886;2023-08-06T10:42:58;100504.09;;;16.31;100.00
62708;BME280;48769;51.624;5.886;2023-08-06T10:45:23;100497.34;;;16.38;100.00
62708;BME280;48769;51.624;5.886;2023-08-06T10:47:54;100509.88;;;16.47;100.00
62708;BME280;48769;51.624;5.886;2023-08-06T10:50:20;100509.03;;;16.47;100.00
62708;BME280;48769;51.624;5.886;2023-08-06T10:52:46;100515.59;;;16.43;100.00
62708;BME280;48769;51.624;5.886;2023-08-06T10:55:12;100522.03;;;16.40;100.00
62708;BME280;48769;51.624;5.886;2023-08-06T10:57:37;100524.00;;;16.38;100.00
62708;BME280;48769;51.624;5.886;2023-08-06T11:00:07;100527.84;;;16.34;100.00
62708;BME280;48769;51.624;5.886;2023-08-06T11:02:36;100531.25;;;16.36;100.00
62708;BME280;48769;51.624;5.886;2023-08-06T11:05:08;100534.41;;;16.41;100.00
62708;BME280;48769;51.624;5.886;2023-08-06T11:07:35;100532.09;;;16.36;100.00
62708;BME280;48769;51.624;5.886;2023-08-06T11:10:03;100541.53;;;16.41;100.00
62708;BME280;48769;51.624;5.886;2023-08-06T11:12:29;100539.22;;;16.47;100.00
62708;BME280;48769;51.624;5.886;2023-08-06T11:14:54;100538.00;;;16.51;100.00
62708;BME280;48769;51.624;5.886;2023-08-06T11:17:21;100540.94;;;16.48;100.00
62708;BME280;48769;51.624;5.886;2023-08-06T11:19:46;100549.53;;;16.52;100.00
62708;BME280;48769;51.624;5.886;2023-08-06T11:22:11;100545.06;;;16.41;100.00
62708;BME280;48769;51.624;5.886;2023-08-06T11:24:37;100539.75;;;16.41;100.00
62708;BME280;48769;51.624;5.886;2023-08-06T11:27:11;100545.31;;;16.38;100.00
62708;BME280;48769;51.624;5.886;2023-08-06T11:29:37;100541.31;;;16.32;100.00
62708;BME280;48769;51.624;5.886;2023-08-06T11:32:04;100553.31;;;16.27;100.00
62708;BME280;48769;51.624;5.886;2023-08-06T11:34:30;100553.56;;;16.24;100.00
62708;BME280;48769;51.624;5.886;2023-08-06T11:36:56;100552.56;;;16.25;100.00
62708;BME280;48769;51.624;5.886;2023-08-06T11:39:22;100553.19;;;16.17;100.00
62708;BME280;48769;51.624;5.886;2023-08-06T11:41:47;100551.38;;;16.18;100.00
62708;BME280;48769;51.624;5.886;2023-08-06T11:44:13;100558.41;;;16.19;100.00
62708;BME280;48769;51.624;5.886;2023-08-06T11:46:57;100556.34;;;16.22;100.00
62708;BME280;48769;51.624;5.886;2023-08-06T11:49:45;100557.44;;;16.20;100.00
62708;BME280;48769;51.624;5.886;2023-08-06T11:52:19;100559.38;;;16.18;100.00
62708;BME280;48769;51.624;5.886;2023-08-06T11:54:47;100562.78;;;16.20;100.00
62708;BME280;48769;51.624;5.886;2023-08-06T11:57:13;100563.75;;;16.19;100.00
62708;BME280;48769;51.624;5.886;2023-08-06T11:59:39;100564.69;;;16.18;100.00
62708;BME280;48769;51.624;5.886;2023-08-06T12:02:08;100557.69;;;16.17;100.00
62708;BME280;48769;51.624;5.886;2023-08-06T12:05:00;100566.91;;;16.12;100.00
62708;BME280;48769;51.624;5.886;2023-08-06T12:07:30;100573.91;;;16.13;100.00
62708;BME280;48769;51.624;5.886;2023-08-06T12:09:56;100572.47;;;16.09;100.00
62708;BME280;48769;51.624;5.886;2023-08-06T12:12:22;100586.25;;;16.15;100.00
62708;BME280;48769;51.624;5.886;2023-08-06T12:14:47;100577.31;;;16.16;100.00
62708;BME280;48769;51.624;5.886;2023-08-06T12:17:13;100589.41;;;16.20;100.00
62708;BME280;48769;51.624;5.886;2023-08-06T12:19:38;100584.09;;;16.20;100.00
62708;BME280;48769;51.624;5.886;2023-08-06T12:22:03;100597.66;;;16.28;100.00
62708;BME280;48769;51.624;5.886;2023-08-06T12:24:29;100601.03;;;16.30;100.00
62708;BME280;48769;51.624;5.886;2023-08-06T12:26:59;100601.19;;;16.28;100.00
62708;BME280;48769;51.624;5.886;2023-08-06T12:29:25;100605.41;;;16.31;100.00
62708;BME280;48769;51.624;5.886;2023-08-06T12:31:51;100604.22;;;16.35;100.00
62708;BME280;48769;51.624;5.886;2023-08-06T12:34:16;100611.72;;;16.30;100.00
62708;BME280;48769;51.624;5.886;2023-08-06T12:36:41;100610.72;;;16.31;100.00
62708;BME280;48769;51.624;5.886;2023-08-06T12:39:07;100617.88;;;16.30;100.00
62708;BME280;48769;51.624;5.886;2023-08-06T12:41:32;100616.81;;;16.33;100.00
62708;BME280;48769;51.624;5.886;2023-08-06T12:43:57;100622.88;;;16.35;100.00
62708;BME280;48769;51.624;5.886;2023-08-06T12:46:23;100625.28;;;16.27;100.00